Pilot Vessel Akarana — ZMT2938 — position and weather

sailwx.info

Track history (hours):
 
Tides and Currents Weather Stations Pressure Air Temp Water Temp Dewpoint Dewpoint Depression Visibility Wind Speed Wind Dir Waves Ship Positions

Pilot Vessel Akarana

Last reported at 2017-Apr-23 12:02 UTC. Time now 2017-Apr-23 14:01 UTC.
Position S 36°46' E 174°50'.

Length 15 m; draft 1.6 m.

Type: Pilot. MMSI: 512000344.

Date/timePositionNaut miles runAvg speedWind from/ knotsBaromVisibWave heightAir tempDewpointWater temp
2017-Apr-23 12:02S 36°46' E 174°50'0 0.1
2017-Apr-23 08:03S 36°46' E 174°49'2 0.6
2017-Apr-23 05:16S 36°44' E 174°50'0 0.0
2017-Apr-23 02:37S 36°44' E 174°50'1 2.0
2017-Apr-23 02:07S 36°45' E 174°50'310.5
2017-Apr-23 01:52S 36°48' E 174°49'1 0.6
2017-Apr-23 00:34S 36°48' E 174°49'0 0.0
2017-Apr-22 17:10S 36°48' E 174°49'423.7
2017-Apr-22 16:59S 36°44' E 174°50'4 5.3
2017-Apr-22 16:11S 36°49' E 174°49'424.1
2017-Apr-22 16:01S 36°44' E 174°50'2 0.6
2017-Apr-22 13:21S 36°46' E 174°49'1 2.5
2017-Apr-22 12:58S 36°47' E 174°49'2 2.7
2017-Apr-22 12:13S 36°48' E 174°49'2 7.2
2017-Apr-22 12:00S 36°47' E 174°48'2 0.6
2017-Apr-22 09:14S 36°46' E 174°49'1 0.3
2017-Apr-22 06:47S 36°46' E 174°49'1 0.1
2017-Apr-21 17:38S 36°46' E 174°50'213.5
2017-Apr-21 17:30S 36°44' E 174°51'2 0.4
2017-Apr-21 11:18S 36°46' E 174°49'1 1.7
2017-Apr-21 10:32S 36°47' E 174°48'0 0.9
2017-Apr-21 10:22S 36°47' E 174°48'1 1.9
2017-Apr-21 09:51S 36°46' E 174°49'1 0.2
2017-Apr-21 06:11S 36°46' E 174°49'1 5.7
2017-Apr-21 05:59S 36°45' E 174°50'3 0.4
2017-Apr-20 21:08S 36°48' E 174°49'2 1.6
2017-Apr-20 20:11S 36°46' E 174°49'317.9
2017-Apr-20 20:00S 36°43' E 174°51'5 2.4
2017-Apr-20 17:50S 36°48' E 174°49'2 6.3
2017-Apr-20 17:29S 36°46' E 174°50'3 7.0
2017-Apr-20 17:00S 36°43' E 174°51'8 3.5
2017-Apr-20 14:43S 36°50' E 174°47'522.8
2017-Apr-20 14:31S 36°46' E 174°49'2 1.8
2017-Apr-20 13:08S 36°48' E 174°49'0 1.0
2017-Apr-20 12:57S 36°48' E 174°49'1 1.3
2017-Apr-20 12:25S 36°49' E 174°49'510.2
2017-Apr-20 11:53S 36°44' E 174°51'817.2
2017-Apr-20 11:25S 36°51' E 174°47'5 6.0
2017-Apr-20 10:31S 36°46' E 174°49'0 7.2
2017-Apr-20 10:30S 36°45' E 174°49'5 2.2
2017-Apr-20 08:12S 36°50' E 174°47'2 0.2
2017-Apr-19 21:42S 36°48' E 174°49'523.2
2017-Apr-19 21:30S 36°44' E 174°51'2 0.7
2017-Apr-19 18:29S 36°46' E 174°50'1 0.3
2017-Apr-19 12:56S 36°44' E 174°50'6 0.3
2017-Apr-18 18:45S 36°50' E 174°47'726.5
2017-Apr-18 18:30S 36°44' E 174°51'4 4.3
2017-Apr-18 17:32S 36°48' E 174°49'226.1
2017-Apr-18 17:28S 36°46' E 174°50'2 1.9
2017-Apr-18 16:09S 36°49' E 174°49'322.9
2017-Apr-18 16:00S 36°45' E 174°49'0 0.0
2017-Apr-17 19:03S 36°46' E 174°50'0 0.0
2017-Apr-17 17:07S 36°46' E 174°50'319.7
2017-Apr-17 16:57S 36°43' E 174°52'3 0.6
2017-Apr-17 11:50S 36°46' E 174°50'3 5.0
2017-Apr-17 11:18S 36°48' E 174°49'0 0.1
2017-Apr-17 09:18S 36°48' E 174°49'2 5.1
2017-Apr-17 08:52S 36°46' E 174°49'1 0.3
2017-Apr-17 06:19S 36°46' E 174°50'0 1.6
2017-Apr-17 06:00S 36°46' E 174°49'3 0.4
2017-Apr-16 22:58S 36°48' E 174°49'0 0.0
2017-Apr-16 17:16S 36°48' E 174°49'0 0.0
2017-Apr-16 10:36S 36°48' E 174°49'1 1.6
2017-Apr-16 09:39S 36°47' E 174°49'0 1.2
2017-Apr-16 09:24S 36°47' E 174°49'2 0.6
2017-Apr-16 06:08S 36°48' E 174°49'1 2.7
2017-Apr-16 05:51S 36°48' E 174°49'0 0.1
2017-Apr-16 04:23S 36°48' E 174°49'3 2.1
2017-Apr-16 02:59S 36°50' E 174°47'510.0
2017-Apr-16 02:29S 36°46' E 174°50'2 3.0
2017-Apr-16 01:39S 36°48' E 174°49'422.9
2017-Apr-16 01:29S 36°45' E 174°51'2 0.6
2017-Apr-15 21:57S 36°46' E 174°49'2 0.9
2017-Apr-15 20:04S 36°48' E 174°49'1 1.4
2017-Apr-15 19:41S 36°48' E 174°49'0 0.0
2017-Apr-15 18:40S 36°48' E 174°49'0 0.0
2017-Apr-15 13:54S 36°48' E 174°49'1 0.2
2017-Apr-15 08:58S 36°47' E 174°49'1 0.3
2017-Apr-15 04:00S 36°46' E 174°50'2 1.8
2017-Apr-15 02:44S 36°48' E 174°49'2 1.3
2017-Apr-15 00:56S 36°46' E 174°50'0 0.1
2017-Apr-14 17:19S 36°46' E 174°49'1 3.1
2017-Apr-14 16:59S 36°45' E 174°50'1 0.6
2017-Apr-14 15:37S 36°46' E 174°50'3 0.4
2017-Apr-14 09:18S 36°48' E 174°49'2 0.4
2017-Apr-14 03:08S 36°46' E 174°50'2 0.9
2017-Apr-14 00:38S 36°48' E 174°49'1 1.1
2017-Apr-14 00:09S 36°49' E 174°49'1 0.1
2017-Apr-13 18:24S 36°48' E 174°49'1 2.1
2017-Apr-13 17:58S 36°47' E 174°49'1 0.3
2017-Apr-13 14:33S 36°48' E 174°49'1 4.0
2017-Apr-13 14:20S 36°47' E 174°49'  
Track history (hours):
 
Tides and Currents Weather Stations Pressure Air Temp Water Temp Dewpoint Dewpoint Depression Visibility Wind Speed Wind Dir Waves Ship Positions

Pilot Vessel Akarana

Last reported at 2017-Apr-23 12:02 UTC. Time now 2017-Apr-23 14:01 UTC.
Position S 36°46' E 174°50'.

Length 15 m; draft 1.6 m.

Type: Pilot. MMSI: 512000344.

Date/timePositionNaut miles runAvg speedWind from/ knotsBaromVisibWave heightAir tempDewpointWater temp
2017-Apr-23 12:02S 36°46' E 174°50'0 0.1
2017-Apr-23 08:03S 36°46' E 174°49'2 0.6
2017-Apr-23 05:16S 36°44' E 174°50'0 0.0
2017-Apr-23 02:37S 36°44' E 174°50'1 2.0
2017-Apr-23 02:07S 36°45' E 174°50'310.5
2017-Apr-23 01:52S 36°48' E 174°49'1 0.6
2017-Apr-23 00:34S 36°48' E 174°49'0 0.0
2017-Apr-22 17:10S 36°48' E 174°49'423.7
2017-Apr-22 16:59S 36°44' E 174°50'4 5.3
2017-Apr-22 16:11S 36°49' E 174°49'424.1
2017-Apr-22 16:01S 36°44' E 174°50'2 0.6
2017-Apr-22 13:21S 36°46' E 174°49'1 2.5
2017-Apr-22 12:58S 36°47' E 174°49'2 2.7
2017-Apr-22 12:13S 36°48' E 174°49'2 7.2
2017-Apr-22 12:00S 36°47' E 174°48'2 0.6
2017-Apr-22 09:14S 36°46' E 174°49'1 0.3
2017-Apr-22 06:47S 36°46' E 174°49'1 0.1
2017-Apr-21 17:38S 36°46' E 174°50'213.5
2017-Apr-21 17:30S 36°44' E 174°51'2 0.4
2017-Apr-21 11:18S 36°46' E 174°49'1 1.7
2017-Apr-21 10:32S 36°47' E 174°48'0 0.9
2017-Apr-21 10:22S 36°47' E 174°48'1 1.9
2017-Apr-21 09:51S 36°46' E 174°49'1 0.2
2017-Apr-21 06:11S 36°46' E 174°49'1 5.7
2017-Apr-21 05:59S 36°45' E 174°50'3 0.4
2017-Apr-20 21:08S 36°48' E 174°49'2 1.6
2017-Apr-20 20:11S 36°46' E 174°49'317.9
2017-Apr-20 20:00S 36°43' E 174°51'5 2.4
2017-Apr-20 17:50S 36°48' E 174°49'2 6.3
2017-Apr-20 17:29S 36°46' E 174°50'3 7.0
2017-Apr-20 17:00S 36°43' E 174°51'8 3.5
2017-Apr-20 14:43S 36°50' E 174°47'522.8
2017-Apr-20 14:31S 36°46' E 174°49'2 1.8
2017-Apr-20 13:08S 36°48' E 174°49'0 1.0
2017-Apr-20 12:57S 36°48' E 174°49'1 1.3
2017-Apr-20 12:25S 36°49' E 174°49'510.2
2017-Apr-20 11:53S 36°44' E 174°51'817.2
2017-Apr-20 11:25S 36°51' E 174°47'5 6.0
2017-Apr-20 10:31S 36°46' E 174°49'0 7.2
2017-Apr-20 10:30S 36°45' E 174°49'5 2.2
2017-Apr-20 08:12S 36°50' E 174°47'2 0.2
2017-Apr-19 21:42S 36°48' E 174°49'523.2
2017-Apr-19 21:30S 36°44' E 174°51'2 0.7
2017-Apr-19 18:29S 36°46' E 174°50'1 0.3
2017-Apr-19 12:56S 36°44' E 174°50'6 0.3
2017-Apr-18 18:45S 36°50' E 174°47'726.5
2017-Apr-18 18:30S 36°44' E 174°51'4 4.3
2017-Apr-18 17:32S 36°48' E 174°49'226.1
2017-Apr-18 17:28S 36°46' E 174°50'2 1.9
2017-Apr-18 16:09S 36°49' E 174°49'322.9
2017-Apr-18 16:00S 36°45' E 174°49'0 0.0
2017-Apr-17 19:03S 36°46' E 174°50'0 0.0
2017-Apr-17 17:07S 36°46' E 174°50'319.7
2017-Apr-17 16:57S 36°43' E 174°52'3 0.6
2017-Apr-17 11:50S 36°46' E 174°50'3 5.0
2017-Apr-17 11:18S 36°48' E 174°49'0 0.1
2017-Apr-17 09:18S 36°48' E 174°49'2 5.1
2017-Apr-17 08:52S 36°46' E 174°49'1 0.3
2017-Apr-17 06:19S 36°46' E 174°50'0 1.6
2017-Apr-17 06:00S 36°46' E 174°49'3 0.4
2017-Apr-16 22:58S 36°48' E 174°49'0 0.0
2017-Apr-16 17:16S 36°48' E 174°49'0 0.0
2017-Apr-16 10:36S 36°48' E 174°49'1 1.6
2017-Apr-16 09:39S 36°47' E 174°49'0 1.2
2017-Apr-16 09:24S 36°47' E 174°49'2 0.6
2017-Apr-16 06:08S 36°48' E 174°49'1 2.7
2017-Apr-16 05:51S 36°48' E 174°49'0 0.1
2017-Apr-16 04:23S 36°48' E 174°49'3 2.1
2017-Apr-16 02:59S 36°50' E 174°47'510.0
2017-Apr-16 02:29S 36°46' E 174°50'2 3.0
2017-Apr-16 01:39S 36°48' E 174°49'422.9
2017-Apr-16 01:29S 36°45' E 174°51'2 0.6
2017-Apr-15 21:57S 36°46' E 174°49'2 0.9
2017-Apr-15 20:04S 36°48' E 174°49'1 1.4
2017-Apr-15 19:41S 36°48' E 174°49'0 0.0
2017-Apr-15 18:40S 36°48' E 174°49'0 0.0
2017-Apr-15 13:54S 36°48' E 174°49'1 0.2
2017-Apr-15 08:58S 36°47' E 174°49'1 0.3
2017-Apr-15 04:00S 36°46' E 174°50'2 1.8
2017-Apr-15 02:44S 36°48' E 174°49'2 1.3
2017-Apr-15 00:56S 36°46' E 174°50'0 0.1
2017-Apr-14 17:19S 36°46' E 174°49'1 3.1
2017-Apr-14 16:59S 36°45' E 174°50'1 0.6
2017-Apr-14 15:37S 36°46' E 174°50'3 0.4
2017-Apr-14 09:18S 36°48' E 174°49'2 0.4
2017-Apr-14 03:08S 36°46' E 174°50'2 0.9
2017-Apr-14 00:38S 36°48' E 174°49'1 1.1
2017-Apr-14 00:09S 36°49' E 174°49'1 0.1
2017-Apr-13 18:24S 36°48' E 174°49'1 2.1
2017-Apr-13 17:58S 36°47' E 174°49'1 0.3
2017-Apr-13 14:33S 36°48' E 174°49'1 4.0
2017-Apr-13 14:20S 36°47' E 174°49'  

Dump ship's entire track history